Terminal Aerodrome Forecast
Issued by NWS

Home | Current Version | Previous Version | Text Only | Print | Product List | Glossary On
Versions: 1 2 3 4 5 6 7 8 9 10 11 12 13 14 15 16 17 18 19 20 21 22 23 24 25
000
FTUS41 KRLX 241700
TAFCKB
TAF
KCKB 241720Z 2418/2518 02008KT P6SM SCT110
     FM242000 03004KT P6SM BKN110
     FM250000 05004KT P6SM SCT140
     FM251100 15005KT P6SM BKN100
     FM251400 17009KT 6SM BR BKN060
     FM251500 18011G16KT 5SM SHRA OVC050=

USA.gov is the U.S. government's official web portal to all federal, state and local government web resources and services.